createdAt,value
2023-02-05T00:01:20.120Z,7.16
2023-02-05T00:03:46.950Z,7.09
2023-02-05T00:06:13.527Z,7.04
2023-02-05T00:08:40.032Z,7.06
2023-02-05T00:11:09.770Z,6.93
2023-02-05T00:13:38.331Z,7.10
2023-02-05T00:16:10.388Z,7.00
2023-02-05T00:18:37.531Z,6.95
2023-02-05T00:21:05.713Z,7.03
2023-02-05T00:23:33.408Z,6.97
2023-02-05T00:26:00.009Z,6.96
2023-02-05T00:28:26.813Z,6.97
2023-02-05T00:30:53.518Z,6.96
2023-02-05T00:33:21.842Z,6.96
2023-02-05T00:35:49.621Z,6.97
2023-02-05T00:38:17.003Z,6.96
2023-02-05T00:40:43.819Z,7.01
2023-02-05T00:43:10.413Z,7.06
2023-02-05T00:45:37.066Z,7.01
2023-02-05T00:48:07.204Z,7.12
2023-02-05T00:50:35.562Z,7.03
2023-02-05T00:53:02.199Z,6.98
2023-02-05T00:55:28.843Z,6.98
2023-02-05T00:57:55.438Z,6.91
2023-02-05T01:00:22.702Z,6.93
2023-02-05T01:02:49.283Z,6.83
2023-02-05T01:05:15.968Z,6.84
2023-02-05T01:07:42.514Z,6.89
2023-02-05T01:10:09.270Z,6.74
2023-02-05T01:12:35.822Z,6.68
2023-02-05T01:15:05.968Z,6.61
2023-02-05T01:17:32.712Z,6.66
2023-02-05T01:19:59.239Z,6.59
2023-02-05T01:22:25.787Z,6.55
2023-02-05T01:24:52.964Z,6.55
2023-02-05T01:27:19.558Z,6.55
2023-02-05T01:29:47.169Z,6.40
2023-02-05T01:32:13.700Z,6.50
2023-02-05T01:34:40.260Z,6.52
2023-02-05T01:37:06.789Z,6.53
2023-02-05T01:39:33.354Z,6.55
2023-02-05T01:41:59.870Z,6.60
2023-02-05T01:44:26.410Z,6.66
2023-02-05T01:46:54.685Z,6.60
2023-02-05T01:49:36.576Z,6.54
2023-02-05T01:52:07.022Z,6.44
2023-02-05T01:54:37.832Z,6.46
2023-02-05T01:57:16.472Z,6.45
2023-02-05T01:59:45.144Z,6.55
2023-02-05T02:02:11.794Z,6.42
2023-02-05T02:04:38.405Z,6.41
2023-02-05T02:07:06.243Z,6.33
2023-02-05T02:09:34.584Z,6.15
2023-02-05T02:12:01.859Z,6.12
2023-02-05T02:14:32.201Z,6.08
2023-02-05T02:17:00.427Z,6.10
2023-02-05T02:19:38.011Z,6.25
2023-02-05T02:22:26.760Z,6.20
2023-02-05T02:25:01.839Z,6.18
2023-02-05T02:27:44.300Z,6.11
2023-02-05T02:30:27.629Z,6.15
2023-02-05T02:33:09.042Z,6.11
2023-02-05T02:35:35.912Z,6.12
2023-02-05T02:38:18.755Z,6.08
2023-02-05T02:41:01.377Z,6.15
2023-02-05T02:43:55.826Z,6.14
2023-02-05T02:46:24.454Z,6.22
2023-02-05T02:48:56.156Z,6.25
2023-02-05T02:51:27.523Z,6.27
2023-02-05T02:53:57.869Z,6.15
2023-02-05T02:56:28.323Z,6.18
2023-02-05T02:59:06.651Z,6.19
2023-02-05T03:01:37.966Z,6.19
2023-02-05T03:04:13.440Z,6.13
2023-02-05T03:06:44.937Z,6.02
2023-02-05T03:09:20.992Z,6.10
2023-02-05T03:11:47.720Z,6.16
2023-02-05T03:14:14.942Z,6.11
2023-02-05T03:16:41.604Z,6.15
2023-02-05T03:19:08.769Z,6.00
2023-02-05T03:21:50.001Z,6.08
2023-02-05T03:24:17.160Z,5.94
2023-02-05T03:26:43.692Z,5.99
2023-02-05T03:29:26.130Z,5.85
2023-02-05T03:32:08.313Z,5.80
2023-02-05T03:34:40.974Z,5.88
2023-02-05T03:37:34.033Z,5.76
2023-02-05T03:40:09.572Z,5.75
2023-02-05T03:43:01.161Z,5.43
2023-02-05T03:45:32.041Z,5.42
2023-02-05T03:48:37.852Z,5.53
2023-02-05T03:51:10.358Z,5.54
2023-02-05T03:53:55.895Z,5.54
2023-02-05T03:57:04.023Z,5.61
2023-02-05T03:59:35.312Z,5.47
2023-02-05T04:02:04.670Z,5.43
2023-02-05T04:04:35.550Z,5.40
2023-02-05T04:07:02.746Z,5.12
2023-02-05T04:09:29.720Z,5.09
2023-02-05T04:11:56.599Z,5.28
2023-02-05T04:14:23.940Z,5.42
2023-02-05T04:16:51.188Z,5.33
2023-02-05T04:19:20.374Z,5.37
2023-02-05T04:21:46.968Z,5.30
2023-02-05T04:24:13.831Z,5.38
2023-02-05T04:26:40.757Z,5.40
2023-02-05T04:29:07.957Z,5.37
2023-02-05T04:31:40.905Z,5.28
2023-02-05T04:34:07.667Z,5.32
2023-02-05T04:36:34.533Z,5.24
2023-02-05T04:39:02.015Z,5.33
2023-02-05T04:41:29.444Z,5.28
2023-02-05T04:43:55.979Z,5.30
2023-02-05T04:46:22.599Z,5.27
2023-02-05T04:48:49.160Z,5.26
2023-02-05T04:51:16.158Z,5.22
2023-02-05T04:53:42.790Z,5.14
2023-02-05T04:56:12.230Z,4.98
2023-02-05T04:58:39.605Z,4.81
2023-02-05T05:01:12.451Z,4.68
2023-02-05T05:03:39.360Z,4.70
2023-02-05T05:06:06.588Z,4.68
2023-02-05T05:08:33.222Z,4.72
2023-02-05T05:11:06.264Z,4.76
2023-02-05T05:13:34.315Z,4.66
2023-02-05T05:16:01.502Z,4.87
2023-02-05T05:18:28.478Z,4.81
2023-02-05T05:20:55.015Z,4.79
2023-02-05T05:23:21.608Z,4.80
2023-02-05T05:25:48.611Z,4.81
2023-02-05T05:28:16.591Z,4.86
2023-02-05T05:30:45.010Z,4.95
2023-02-05T05:33:12.249Z,4.97
2023-02-05T05:35:39.229Z,5.01
2023-02-05T05:38:06.101Z,5.04
2023-02-05T05:40:51.748Z,4.92
2023-02-05T05:43:39.228Z,4.91
2023-02-05T05:46:06.940Z,4.96
2023-02-05T05:48:33.621Z,4.81
2023-02-05T05:51:00.192Z,4.82
2023-02-05T05:53:27.721Z,4.83
2023-02-05T05:55:54.269Z,4.89
2023-02-05T05:58:20.794Z,4.73
2023-02-05T06:00:47.392Z,4.75
2023-02-05T06:03:14.077Z,4.71
2023-02-05T06:05:40.628Z,4.67
2023-02-05T06:08:07.591Z,4.74
2023-02-05T06:10:35.026Z,4.74
2023-02-05T06:13:01.572Z,4.70
2023-02-05T06:15:28.204Z,4.63
2023-02-05T06:17:54.745Z,4.50
2023-02-05T06:20:21.377Z,4.64
2023-02-05T06:22:47.913Z,4.55
2023-02-05T06:25:15.672Z,4.61
2023-02-05T06:27:42.352Z,4.63
2023-02-05T06:30:09.561Z,4.72
2023-02-05T06:32:36.174Z,4.74
2023-02-05T06:35:03.026Z,4.86
2023-02-05T06:37:46.293Z,4.84
2023-02-05T06:40:15.606Z,4.93
2023-02-05T06:42:42.449Z,4.80
2023-02-05T06:45:10.067Z,4.81
2023-02-05T06:47:36.895Z,4.86
2023-02-05T06:50:04.175Z,4.78
2023-02-05T06:52:30.695Z,4.73
2023-02-05T06:54:57.215Z,4.68
2023-02-05T06:57:23.757Z,4.59
2023-02-05T06:59:50.966Z,4.68
2023-02-05T07:02:17.512Z,4.66
2023-02-05T07:04:44.061Z,4.67
2023-02-05T07:07:10.630Z,4.52
2023-02-05T07:09:37.157Z,4.63
2023-02-05T07:12:03.912Z,4.65
2023-02-05T07:14:31.491Z,4.63
2023-02-05T07:16:58.099Z,4.70
2023-02-05T07:19:24.639Z,4.86
2023-02-05T07:21:51.152Z,5.00
2023-02-05T07:24:17.730Z,5.15
2023-02-05T07:26:45.237Z,5.28
2023-02-05T07:29:12.099Z,5.31
2023-02-05T07:31:38.782Z,5.34
2023-02-05T07:34:05.388Z,5.42
2023-02-05T07:36:31.921Z,5.40
2023-02-05T07:38:58.506Z,5.44
2023-02-05T07:41:26.750Z,5.46
2023-02-05T07:43:54.511Z,5.53
2023-02-05T07:46:22.248Z,5.68
2023-02-05T07:48:49.307Z,5.75
2023-02-05T07:51:18.615Z,5.81
2023-02-05T07:53:45.862Z,5.89
2023-02-05T07:56:12.656Z,5.97
2023-02-05T07:58:39.260Z,5.95
2023-02-05T08:01:06.187Z,5.96
2023-02-05T08:03:32.916Z,6.08
2023-02-05T08:05:59.739Z,6.14
2023-02-05T08:08:26.319Z,6.26
2023-02-05T08:10:58.338Z,6.33
2023-02-05T08:13:24.940Z,6.27
2023-02-05T08:15:51.528Z,6.42
2023-02-05T08:18:18.133Z,6.56
2023-02-05T08:20:44.855Z,6.60
2023-02-05T08:23:11.472Z,6.71
2023-02-05T08:25:38.808Z,6.89
2023-02-05T08:28:06.282Z,6.89
2023-02-05T08:30:32.884Z,7.14
2023-02-05T08:32:59.443Z,6.78
2023-02-05T08:35:25.996Z,7.07
2023-02-05T08:37:52.558Z,7.28
2023-02-05T08:40:19.626Z,7.47
2023-02-05T08:42:46.700Z,7.68
2023-02-05T08:45:14.021Z,7.70
2023-02-05T08:47:40.662Z,7.67
2023-02-05T08:50:07.335Z,7.90
2023-02-05T08:52:33.883Z,8.07
2023-02-05T08:55:00.455Z,8.24
2023-02-05T08:57:30.539Z,8.13
2023-02-05T08:59:57.396Z,8.24
2023-02-05T09:02:26.852Z,8.52
2023-02-05T09:05:07.695Z,8.39
2023-02-05T09:07:35.399Z,8.55
2023-02-05T09:10:01.933Z,8.74
2023-02-05T09:12:28.501Z,8.71
2023-02-05T09:14:55.313Z,8.95
2023-02-05T09:17:21.876Z,8.98
2023-02-05T09:19:48.478Z,9.13
2023-02-05T09:22:15.073Z,9.21
2023-02-05T09:24:41.758Z,9.37
2023-02-05T09:27:08.349Z,8.93
2023-02-05T09:29:35.053Z,9.28
2023-02-05T09:32:01.632Z,9.50
2023-02-05T09:34:28.306Z,9.79
2023-02-05T09:36:54.832Z,9.18
2023-02-05T09:39:52.375Z,9.53
2023-02-05T09:42:30.065Z,9.84
2023-02-05T09:45:14.598Z,9.90
2023-02-05T09:47:59.853Z,9.94
2023-02-05T09:50:31.430Z,9.88
2023-02-05T09:53:09.527Z,9.66
2023-02-05T09:55:40.158Z,10.49
2023-02-05T09:58:31.015Z,10.66
2023-02-05T10:01:02.823Z,11.13
2023-02-05T10:03:34.263Z,11.38
2023-02-05T10:06:15.840Z,11.48
2023-02-05T10:08:53.310Z,11.75
2023-02-05T10:11:25.941Z,12.08
2023-02-05T10:14:04.900Z,12.33
2023-02-05T10:17:16.730Z,12.23
2023-02-05T10:20:20.329Z,12.17
2023-02-05T10:22:59.093Z,12.37
2023-02-05T10:25:50.029Z,12.22
2023-02-05T10:28:45.270Z,12.43
2023-02-05T10:31:27.182Z,12.35
2023-02-05T10:34:00.793Z,11.96
2023-02-05T10:36:27.779Z,12.24
2023-02-05T10:38:57.275Z,12.16
2023-02-05T10:41:38.823Z,11.97
2023-02-05T10:44:27.939Z,12.92
2023-02-05T10:47:03.495Z,13.27
2023-02-05T10:49:52.183Z,13.32
2023-02-05T10:52:19.072Z,13.77
2023-02-05T10:54:45.803Z,13.67
2023-02-05T10:57:16.184Z,13.50
2023-02-05T11:00:02.254Z,13.66
2023-02-05T11:02:34.560Z,13.34
2023-02-05T11:05:06.067Z,12.62
2023-02-05T11:07:38.288Z,12.80
2023-02-05T11:10:21.175Z,12.62
2023-02-05T11:13:24.599Z,12.74
2023-02-05T11:15:58.912Z,12.53
2023-02-05T11:18:33.421Z,12.44
2023-02-05T11:21:02.982Z,12.26
2023-02-05T11:23:32.082Z,12.06
2023-02-05T11:26:01.257Z,12.38
2023-02-05T11:28:32.852Z,12.18
2023-02-05T11:31:20.805Z,12.09
2023-02-05T11:33:48.759Z,12.02
2023-02-05T11:36:26.187Z,11.55
2023-02-05T11:38:57.045Z,12.05
2023-02-05T11:41:48.156Z,12.03
2023-02-05T11:44:26.103Z,12.11
2023-02-05T11:46:56.850Z,12.10
2023-02-05T11:49:41.025Z,11.70
2023-02-05T11:52:13.358Z,11.48
2023-02-05T11:54:45.852Z,11.20
2023-02-05T11:57:18.605Z,11.65
2023-02-05T11:59:55.624Z,11.73
2023-02-05T12:02:30.872Z,11.79
2023-02-05T12:05:10.990Z,11.87
2023-02-05T12:07:48.597Z,11.89
2023-02-05T12:10:26.498Z,11.88
2023-02-05T12:13:02.700Z,11.79
2023-02-05T12:15:37.372Z,11.87
2023-02-05T12:18:22.522Z,12.05
2023-02-05T12:21:28.345Z,12.08
2023-02-05T12:24:18.480Z,11.59
2023-02-05T12:26:48.500Z,11.49
2023-02-05T12:29:30.582Z,11.52
2023-02-05T12:31:57.196Z,11.68
2023-02-05T12:35:02.426Z,11.59
2023-02-05T12:37:28.920Z,11.54
2023-02-05T12:40:10.156Z,11.83
2023-02-05T12:42:44.716Z,11.86
2023-02-05T12:45:36.663Z,11.97
2023-02-05T12:48:28.292Z,11.77
2023-02-05T12:51:16.801Z,11.73
2023-02-05T12:54:02.815Z,11.88
2023-02-05T12:56:56.502Z,11.95
2023-02-05T12:59:45.650Z,11.74
2023-02-05T13:02:32.378Z,11.23
2023-02-05T13:05:09.292Z,11.40
2023-02-05T13:07:42.833Z,11.27
2023-02-05T13:10:28.334Z,11.32
2023-02-05T13:13:00.536Z,10.86
2023-02-05T13:15:35.806Z,11.18
2023-02-05T13:18:17.087Z,11.33
2023-02-05T13:21:08.161Z,11.12
2023-02-05T13:23:55.065Z,11.11
2023-02-05T13:26:48.659Z,11.02
2023-02-05T13:29:17.404Z,11.17
2023-02-05T13:31:49.020Z,11.09
2023-02-05T13:34:17.292Z,11.07
2023-02-05T13:37:00.343Z,10.87
2023-02-05T13:39:42.032Z,9.92
2023-02-05T13:42:23.787Z,9.96
2023-02-05T13:45:28.285Z,10.07
2023-02-05T13:48:32.581Z,10.07
2023-02-05T13:51:38.071Z,9.95
2023-02-05T13:54:25.777Z,9.97
2023-02-05T13:57:24.912Z,9.85
2023-02-05T13:59:53.288Z,9.92
2023-02-05T14:02:32.498Z,10.04
2023-02-05T14:05:00.746Z,10.23
2023-02-05T14:07:32.192Z,10.14
2023-02-05T14:10:00.984Z,10.14
2023-02-05T14:12:33.348Z,10.07
2023-02-05T14:15:25.172Z,10.23
2023-02-05T14:17:54.261Z,10.28
2023-02-05T14:20:30.092Z,10.19
2023-02-05T14:23:00.808Z,10.25
2023-02-05T14:25:38.184Z,10.27
2023-02-05T14:28:17.072Z,10.29
2023-02-05T14:30:46.832Z,10.33
2023-02-05T14:33:33.456Z,9.94
2023-02-05T14:36:15.221Z,9.92
2023-02-05T14:38:51.739Z,9.95
2023-02-05T14:41:24.811Z,10.06
2023-02-05T14:44:02.116Z,10.17
2023-02-05T14:46:30.814Z,10.23
2023-02-05T14:49:00.418Z,10.26
2023-02-05T14:51:38.400Z,10.30
2023-02-05T14:54:18.089Z,10.25
2023-02-05T14:56:50.640Z,10.23
2023-02-05T14:59:29.234Z,10.22
2023-02-05T15:01:57.844Z,10.21
2023-02-05T15:04:50.294Z,10.21
2023-02-05T15:07:24.462Z,10.23
2023-02-05T15:10:00.259Z,10.21
2023-02-05T15:12:35.589Z,10.25
2023-02-05T15:15:27.997Z,10.14
2023-02-05T15:17:59.076Z,10.11
2023-02-05T15:20:32.337Z,10.16
2023-02-05T15:23:23.407Z,10.11
2023-02-05T15:26:01.900Z,10.10
2023-02-05T15:28:31.329Z,10.13
2023-02-05T15:31:06.247Z,10.13
2023-02-05T15:33:42.967Z,10.03
2023-02-05T15:36:32.001Z,10.08
2023-02-05T15:39:12.747Z,10.01
2023-02-05T15:41:43.679Z,10.03
2023-02-05T15:44:21.610Z,10.02
2023-02-05T15:46:49.142Z,9.94
2023-02-05T15:49:15.753Z,9.90
2023-02-05T15:51:42.456Z,9.92
2023-02-05T15:54:09.039Z,9.91
2023-02-05T15:56:39.255Z,9.91
2023-02-05T15:59:15.807Z,9.92
2023-02-05T16:01:47.950Z,9.94
2023-02-05T16:04:28.471Z,9.88
2023-02-05T16:06:55.313Z,9.84
2023-02-05T16:09:24.960Z,9.85
2023-02-05T16:11:51.917Z,9.83
2023-02-05T16:14:24.270Z,9.84
2023-02-05T16:17:02.946Z,9.81
2023-02-05T16:19:35.866Z,9.79
2023-02-05T16:22:35.490Z,9.80
2023-02-05T16:25:07.641Z,9.76
2023-02-05T16:27:43.263Z,9.75
2023-02-05T16:30:33.888Z,9.73
2023-02-05T16:33:03.953Z,9.68
2023-02-05T16:35:41.786Z,9.73
2023-02-05T16:38:23.079Z,9.73
2023-02-05T16:40:54.805Z,9.69
2023-02-05T16:43:31.617Z,9.74
2023-02-05T16:46:20.329Z,9.72
2023-02-05T16:48:46.870Z,9.69
2023-02-05T16:52:01.537Z,9.74
2023-02-05T16:54:31.434Z,9.60
2023-02-05T16:57:00.918Z,9.57
2023-02-05T16:59:35.198Z,9.64
2023-02-05T17:02:03.488Z,9.66
2023-02-05T17:04:38.741Z,9.54
2023-02-05T17:07:17.934Z,9.57
2023-02-05T17:09:44.495Z,9.49
2023-02-05T17:12:23.112Z,9.56
2023-02-05T17:14:58.401Z,9.60
2023-02-05T17:17:26.665Z,9.53
2023-02-05T17:20:20.013Z,9.52
2023-02-05T17:23:07.885Z,9.44
2023-02-05T17:25:38.114Z,9.43
2023-02-05T17:28:07.225Z,9.45
2023-02-05T17:30:34.982Z,9.36
2023-02-05T17:33:06.036Z,9.33
2023-02-05T17:35:33.798Z,9.34
2023-02-05T17:38:00.591Z,9.35
2023-02-05T17:40:27.280Z,9.45
2023-02-05T17:42:53.859Z,9.35
2023-02-05T17:45:24.331Z,9.37
2023-02-05T17:47:50.865Z,9.39
2023-02-05T17:50:17.665Z,9.36
2023-02-05T17:52:45.462Z,9.32
2023-02-05T17:55:15.338Z,9.44
2023-02-05T17:57:43.456Z,9.50
2023-02-05T18:00:21.736Z,9.40
2023-02-05T18:02:48.744Z,9.44
2023-02-05T18:05:15.687Z,9.42
2023-02-05T18:07:46.066Z,9.35
2023-02-05T18:10:15.475Z,9.27
2023-02-05T18:12:42.154Z,9.26
2023-02-05T18:15:09.844Z,9.22
2023-02-05T18:17:36.459Z,9.27
2023-02-05T18:20:04.668Z,9.21
2023-02-05T18:22:31.667Z,9.17
2023-02-05T18:24:58.268Z,9.30
2023-02-05T18:27:25.956Z,9.25
2023-02-05T18:29:52.587Z,9.21
2023-02-05T18:32:19.480Z,9.23
2023-02-05T18:34:46.040Z,9.31
2023-02-05T18:37:14.101Z,9.22
2023-02-05T18:39:40.956Z,9.17
2023-02-05T18:42:07.578Z,9.18
2023-02-05T18:44:34.520Z,9.14
2023-02-05T18:47:02.462Z,9.19
2023-02-05T18:49:29.032Z,9.18
2023-02-05T18:51:55.565Z,9.16
2023-02-05T18:54:22.057Z,9.12
2023-02-05T18:56:48.748Z,9.16
2023-02-05T18:59:16.557Z,9.12
2023-02-05T19:01:43.472Z,9.13
2023-02-05T19:04:13.078Z,9.07
2023-02-05T19:06:45.871Z,9.18
2023-02-05T19:09:12.426Z,9.12
2023-02-05T19:11:41.279Z,9.04
2023-02-05T19:14:11.049Z,9.08
2023-02-05T19:16:39.703Z,9.03
2023-02-05T19:19:06.887Z,9.09
2023-02-05T19:21:34.066Z,8.99
2023-02-05T19:24:05.464Z,9.01
2023-02-05T19:26:33.178Z,9.02
2023-02-05T19:29:02.136Z,9.08
2023-02-05T19:31:31.858Z,9.03
2023-02-05T19:33:58.738Z,8.97
2023-02-05T19:36:26.000Z,9.04
2023-02-05T19:38:53.472Z,8.96
2023-02-05T19:41:26.218Z,8.92
2023-02-05T19:43:58.926Z,8.91
2023-02-05T19:46:27.879Z,9.01
2023-02-05T19:48:56.270Z,8.98
2023-02-05T19:51:23.081Z,9.05
2023-02-05T19:53:49.629Z,8.97
2023-02-05T19:56:19.199Z,9.12
2023-02-05T19:58:48.188Z,9.04
2023-02-05T20:01:24.448Z,9.18
2023-02-05T20:03:56.860Z,9.15
2023-02-05T20:06:26.752Z,9.13
2023-02-05T20:08:53.733Z,9.03
2023-02-05T20:11:20.558Z,9.11
2023-02-05T20:13:47.729Z,9.13
2023-02-05T20:16:19.896Z,9.09
2023-02-05T20:18:47.668Z,9.00
2023-02-05T20:21:17.056Z,9.06
2023-02-05T20:23:43.623Z,9.06
2023-02-05T20:26:10.674Z,8.95
2023-02-05T20:28:59.086Z,9.02
2023-02-05T20:31:34.360Z,9.03
2023-02-05T20:34:01.661Z,9.04
2023-02-05T20:36:28.974Z,8.89
2023-02-05T20:39:00.081Z,8.97
2023-02-05T20:41:26.965Z,9.07
2023-02-05T20:43:54.523Z,9.06
2023-02-05T20:46:21.120Z,9.08
2023-02-05T20:48:48.457Z,9.05
2023-02-05T20:51:17.460Z,8.97
2023-02-05T20:53:44.416Z,9.06
2023-02-05T20:56:16.961Z,9.08
2023-02-05T20:58:44.278Z,9.05
2023-02-05T21:01:23.924Z,9.09
2023-02-05T21:03:55.779Z,9.04
2023-02-05T21:06:23.061Z,9.05
2023-02-05T21:08:51.676Z,8.95
2023-02-05T21:11:19.594Z,8.99
2023-02-05T21:13:47.984Z,9.08
2023-02-05T21:16:18.229Z,8.93
2023-02-05T21:18:46.000Z,9.09
2023-02-05T21:21:28.348Z,9.02
2023-02-05T21:23:56.557Z,9.09
2023-02-05T21:26:26.045Z,9.01
2023-02-05T21:28:54.471Z,8.95
2023-02-05T21:31:21.059Z,9.00
2023-02-05T21:33:47.660Z,8.99
2023-02-05T21:36:14.252Z,9.10
2023-02-05T21:38:42.439Z,8.95
2023-02-05T21:41:13.946Z,8.94
2023-02-05T21:43:41.753Z,8.94
2023-02-05T21:46:13.475Z,8.95
2023-02-05T21:48:40.543Z,8.94
2023-02-05T21:51:12.536Z,8.92
2023-02-05T21:53:39.856Z,9.05
2023-02-05T21:56:09.181Z,9.08
2023-02-05T21:58:37.522Z,9.01
2023-02-05T22:01:22.046Z,8.95
2023-02-05T22:03:51.745Z,9.01
2023-02-05T22:06:19.922Z,8.97
2023-02-05T22:08:50.830Z,9.04
2023-02-05T22:11:20.448Z,9.07
2023-02-05T22:13:49.088Z,8.92
2023-02-05T22:16:21.569Z,8.90
2023-02-05T22:18:48.743Z,8.96
2023-02-05T22:21:18.109Z,8.78
2023-02-05T22:23:50.540Z,8.77
2023-02-05T22:26:19.029Z,8.77
2023-02-05T22:28:45.904Z,8.76
2023-02-05T22:31:15.686Z,8.77
2023-02-05T22:33:44.788Z,8.82
2023-02-05T22:36:13.556Z,8.87
2023-02-05T22:38:41.770Z,8.85
2023-02-05T22:41:09.525Z,8.84
2023-02-05T22:43:36.564Z,8.63
2023-02-05T22:46:08.445Z,8.67
2023-02-05T22:48:39.918Z,8.57
2023-02-05T22:51:09.919Z,8.70
2023-02-05T22:53:36.743Z,8.75
2023-02-05T22:56:06.624Z,8.56
2023-02-05T22:58:34.129Z,8.55
2023-02-05T23:01:14.722Z,8.44
2023-02-05T23:03:41.365Z,8.36
2023-02-05T23:06:16.748Z,8.35
2023-02-05T23:08:43.788Z,8.21
2023-02-05T23:11:13.339Z,8.28
2023-02-05T23:13:41.134Z,8.32
2023-02-05T23:16:13.785Z,8.39
2023-02-05T23:18:40.904Z,8.47
2023-02-05T23:21:16.487Z,8.35
2023-02-05T23:23:43.490Z,8.39
2023-02-05T23:26:13.509Z,8.40
2023-02-05T23:28:40.334Z,8.38
2023-02-05T23:31:07.478Z,8.43
2023-02-05T23:33:35.477Z,8.43
2023-02-05T23:36:02.834Z,8.42
2023-02-05T23:38:29.452Z,8.53
2023-02-05T23:40:56.269Z,8.37
2023-02-05T23:43:23.792Z,8.39
2023-02-05T23:45:52.060Z,8.32
2023-02-05T23:48:18.802Z,8.32
2023-02-05T23:50:49.226Z,8.32
2023-02-05T23:53:15.986Z,8.35
2023-02-05T23:55:43.913Z,8.33
2023-02-05T23:58:11.340Z,8.32
